Punta Salinas — EABF — position and weather

sailwx.info

Track history (hours):
 
Tides and Currents Weather Stations Pressure Air Temp Water Temp Dewpoint Dewpoint Depression Visibility Wind Speed Wind Dir Waves Ship Positions

Punta Salinas

Last reported at 2017-Jul-20 03:38 UTC. Time now 2017-Jul-25 16:33 UTC.
Position N 28°29' W 016°14'.

Length 62 m; draft 5 m.

Type: SAR. MMSI: 224522000.

Date/timePositionNaut miles runAvg speedWind from/ knotsBaromVisibWave heightAir tempDewpointWater temp
2017-Jul-20 03:38N 28°29' W 016°14'0 0.0
2017-Jul-19 21:56N 28°29' W 016°14'0 0.0
2017-Jul-19 21:26N 28°29' W 016°14'0 0.0
2017-Jul-19 20:56N 28°29' W 016°14'0 0.0
2017-Jul-19 19:44N 28°29' W 016°14'0 0.0
2017-Jul-19 19:26N 28°29' W 016°14'0 0.0
2017-Jul-19 18:59N 28°29' W 016°14'0 0.0
2017-Jul-19 04:05N 28°29' W 016°14'0 0.0
2017-Jul-18 20:59N 28°29' W 016°14'0 0.0
2017-Jul-18 20:17N 28°29' W 016°14'0 0.0
2017-Jul-18 13:05N 28°29' W 016°14'0 0.0
2017-Jul-18 12:50N 28°29' W 016°14'0 0.0
2017-Jul-18 05:26N 28°29' W 016°14'0 0.0
2017-Jul-18 04:56N 28°29' W 016°14'0 0.0
2017-Jul-18 04:29N 28°29' W 016°14'0 0.0
2017-Jul-17 18:08N 28°29' W 016°14'0 0.0
2017-Jul-17 17:53N 28°29' W 016°14'0 0.0
2017-Jul-17 16:26N 28°29' W 016°14'0 0.0
2017-Jul-17 15:38N 28°29' W 016°14'0 0.0
2017-Jul-17 15:29N 28°29' W 016°14'0 0.0
2017-Jul-17 14:59N 28°29' W 016°14'0 0.0
2017-Jul-17 12:44N 28°29' W 016°14'0 0.0
2017-Jul-17 12:29N 28°29' W 016°14'0 0.0
2017-Jul-17 11:59N 28°29' W 016°14'0 0.0
2017-Jul-17 11:29N 28°29' W 016°14'0 0.0
2017-Jul-17 10:47N 28°29' W 016°14'0 0.0
2017-Jul-17 10:02N 28°29' W 016°14'0 0.0
2017-Jul-17 09:47N 28°29' W 016°14'0 0.0
2017-Jul-17 09:20N 28°29' W 016°14'0 0.0
2017-Jul-17 08:50N 28°29' W 016°14'0 0.0
2017-Jul-17 08:23N 28°29' W 016°14'0 0.0
2017-Jul-17 07:53N 28°29' W 016°14'0 0.0
2017-Jul-17 07:23N 28°29' W 016°14'0 0.0
2017-Jul-17 06:20N 28°29' W 016°14'0 0.0
2017-Jul-17 05:41N 28°29' W 016°14'0 0.0
2017-Jul-17 05:20N 28°29' W 016°14'0 0.0
2017-Jul-17 04:53N 28°29' W 016°14'0 0.0
2017-Jul-17 04:23N 28°29' W 016°14'0 0.0
2017-Jul-16 16:20N 28°29' W 016°14'0 0.0
2017-Jul-16 15:53N 28°29' W 016°14'0 0.0
2017-Jul-16 07:47N 28°29' W 016°14'0 0.0
2017-Jul-16 07:14N 28°29' W 016°14'0 0.0
2017-Jul-15 02:53N 28°29' W 016°14'0 0.0
2017-Jul-14 04:20N 28°29' W 016°14'3 3.5
2017-Jul-14 03:22N 28°28' W 016°11'3 8.4
2017-Jul-14 03:00N 28°26' W 016°07'5 9.0
2017-Jul-14 02:28N 28°25' W 016°02'5 9.5
2017-Jul-14 01:59N 28°23' W 015°57'5 9.9
2017-Jul-14 01:30N 28°23' W 015°52'1 2.0
2017-Jul-14 01:00N 28°23' W 015°51'3 6.2
2017-Jul-14 00:30N 28°24' W 015°54'3 6.1
2017-Jul-14 00:00N 28°25' W 015°57'7 8.3
2017-Jul-13 23:12N 28°26' W 016°05'2 8.6
2017-Jul-13 23:00N 28°26' W 016°07'611.6
2017-Jul-13 22:30N 28°28' W 016°13'  
Track history (hours):
 
Tides and Currents Weather Stations Pressure Air Temp Water Temp Dewpoint Dewpoint Depression Visibility Wind Speed Wind Dir Waves Ship Positions

Punta Salinas

Last reported at 2017-Jul-20 03:38 UTC. Time now 2017-Jul-25 16:33 UTC.
Position N 28°29' W 016°14'.

Length 62 m; draft 5 m.

Type: SAR. MMSI: 224522000.

Date/timePositionNaut miles runAvg speedWind from/ knotsBaromVisibWave heightAir tempDewpointWater temp
2017-Jul-20 03:38N 28°29' W 016°14'0 0.0
2017-Jul-19 21:56N 28°29' W 016°14'0 0.0
2017-Jul-19 21:26N 28°29' W 016°14'0 0.0
2017-Jul-19 20:56N 28°29' W 016°14'0 0.0
2017-Jul-19 19:44N 28°29' W 016°14'0 0.0
2017-Jul-19 19:26N 28°29' W 016°14'0 0.0
2017-Jul-19 18:59N 28°29' W 016°14'0 0.0
2017-Jul-19 04:05N 28°29' W 016°14'0 0.0
2017-Jul-18 20:59N 28°29' W 016°14'0 0.0
2017-Jul-18 20:17N 28°29' W 016°14'0 0.0
2017-Jul-18 13:05N 28°29' W 016°14'0 0.0
2017-Jul-18 12:50N 28°29' W 016°14'0 0.0
2017-Jul-18 05:26N 28°29' W 016°14'0 0.0
2017-Jul-18 04:56N 28°29' W 016°14'0 0.0
2017-Jul-18 04:29N 28°29' W 016°14'0 0.0
2017-Jul-17 18:08N 28°29' W 016°14'0 0.0
2017-Jul-17 17:53N 28°29' W 016°14'0 0.0
2017-Jul-17 16:26N 28°29' W 016°14'0 0.0
2017-Jul-17 15:38N 28°29' W 016°14'0 0.0
2017-Jul-17 15:29N 28°29' W 016°14'0 0.0
2017-Jul-17 14:59N 28°29' W 016°14'0 0.0
2017-Jul-17 12:44N 28°29' W 016°14'0 0.0
2017-Jul-17 12:29N 28°29' W 016°14'0 0.0
2017-Jul-17 11:59N 28°29' W 016°14'0 0.0
2017-Jul-17 11:29N 28°29' W 016°14'0 0.0
2017-Jul-17 10:47N 28°29' W 016°14'0 0.0
2017-Jul-17 10:02N 28°29' W 016°14'0 0.0
2017-Jul-17 09:47N 28°29' W 016°14'0 0.0
2017-Jul-17 09:20N 28°29' W 016°14'0 0.0
2017-Jul-17 08:50N 28°29' W 016°14'0 0.0
2017-Jul-17 08:23N 28°29' W 016°14'0 0.0
2017-Jul-17 07:53N 28°29' W 016°14'0 0.0
2017-Jul-17 07:23N 28°29' W 016°14'0 0.0
2017-Jul-17 06:20N 28°29' W 016°14'0 0.0
2017-Jul-17 05:41N 28°29' W 016°14'0 0.0
2017-Jul-17 05:20N 28°29' W 016°14'0 0.0
2017-Jul-17 04:53N 28°29' W 016°14'0 0.0
2017-Jul-17 04:23N 28°29' W 016°14'0 0.0
2017-Jul-16 16:20N 28°29' W 016°14'0 0.0
2017-Jul-16 15:53N 28°29' W 016°14'0 0.0
2017-Jul-16 07:47N 28°29' W 016°14'0 0.0
2017-Jul-16 07:14N 28°29' W 016°14'0 0.0
2017-Jul-15 02:53N 28°29' W 016°14'0 0.0
2017-Jul-14 04:20N 28°29' W 016°14'3 3.5
2017-Jul-14 03:22N 28°28' W 016°11'3 8.4
2017-Jul-14 03:00N 28°26' W 016°07'5 9.0
2017-Jul-14 02:28N 28°25' W 016°02'5 9.5
2017-Jul-14 01:59N 28°23' W 015°57'5 9.9
2017-Jul-14 01:30N 28°23' W 015°52'1 2.0
2017-Jul-14 01:00N 28°23' W 015°51'3 6.2
2017-Jul-14 00:30N 28°24' W 015°54'3 6.1
2017-Jul-14 00:00N 28°25' W 015°57'7 8.3
2017-Jul-13 23:12N 28°26' W 016°05'2 8.6
2017-Jul-13 23:00N 28°26' W 016°07'611.6
2017-Jul-13 22:30N 28°28' W 016°13'  

Dump ship's entire track history